sensor_id;sensor_type;location;lat;lon;timestamp;P1;durP1;ratioP1;P2;durP2;ratioP2
13568;SDS011;6856;51.460;7.158;2023-12-20T00:01:28;8.93;;;7.63;;
13568;SDS011;6856;51.460;7.158;2023-12-20T00:04:02;10.73;;;9.60;;
13568;SDS011;6856;51.460;7.158;2023-12-20T00:06:37;9.67;;;8.27;;
13568;SDS011;6856;51.460;7.158;2023-12-20T00:09:11;10.57;;;9.47;;
13568;SDS011;6856;51.460;7.158;2023-12-20T00:11:45;9.87;;;8.27;;
13568;SDS011;6856;51.460;7.158;2023-12-20T00:14:22;10.67;;;9.57;;
13568;SDS011;6856;51.460;7.158;2023-12-20T00:16:56;9.37;;;8.33;;
13568;SDS011;6856;51.460;7.158;2023-12-20T00:19:30;10.50;;;9.40;;
13568;SDS011;6856;51.460;7.158;2023-12-20T00:22:03;10.70;;;9.17;;
13568;SDS011;6856;51.460;7.158;2023-12-20T00:24:39;9.90;;;8.33;;
13568;SDS011;6856;51.460;7.158;2023-12-20T00:27:13;10.17;;;8.33;;
13568;SDS011;6856;51.460;7.158;2023-12-20T00:29:49;8.83;;;7.53;;
13568;SDS011;6856;51.460;7.158;2023-12-20T00:32:23;9.93;;;7.50;;
13568;SDS011;6856;51.460;7.158;2023-12-20T00:34:57;9.90;;;8.03;;
13568;SDS011;6856;51.460;7.158;2023-12-20T00:37:31;7.37;;;6.43;;
13568;SDS011;6856;51.460;7.158;2023-12-20T00:40:06;9.17;;;6.83;;
13568;SDS011;6856;51.460;7.158;2023-12-20T00:42:41;10.07;;;6.93;;
13568;SDS011;6856;51.460;7.158;2023-12-20T00:45:16;10.97;;;8.30;;
13568;SDS011;6856;51.460;7.158;2023-12-20T00:47:51;12.33;;;8.50;;
13568;SDS011;6856;51.460;7.158;2023-12-20T00:50:25;9.60;;;6.73;;
13568;SDS011;6856;51.460;7.158;2023-12-20T00:53:01;9.40;;;6.37;;
13568;SDS011;6856;51.460;7.158;2023-12-20T00:55:34;9.23;;;6.07;;
13568;SDS011;6856;51.460;7.158;2023-12-20T00:58:08;8.10;;;5.70;;
13568;SDS011;6856;51.460;7.158;2023-12-20T01:00:48;8.57;;;6.00;;
13568;SDS011;6856;51.460;7.158;2023-12-20T01:03:23;8.80;;;6.10;;
13568;SDS011;6856;51.460;7.158;2023-12-20T01:05:57;8.57;;;5.33;;
13568;SDS011;6856;51.460;7.158;2023-12-20T01:08:31;7.93;;;5.50;;
13568;SDS011;6856;51.460;7.158;2023-12-20T01:11:06;7.33;;;5.07;;
13568;SDS011;6856;51.460;7.158;2023-12-20T01:13:41;6.83;;;4.47;;
13568;SDS011;6856;51.460;7.158;2023-12-20T01:16:17;6.37;;;5.13;;
13568;SDS011;6856;51.460;7.158;2023-12-20T01:18:51;6.97;;;4.23;;
13568;SDS011;6856;51.460;7.158;2023-12-20T01:21:24;5.77;;;4.20;;
13568;SDS011;6856;51.460;7.158;2023-12-20T01:24:00;6.40;;;4.63;;
13568;SDS011;6856;51.460;7.158;2023-12-20T01:26:35;6.23;;;4.27;;
13568;SDS011;6856;51.460;7.158;2023-12-20T01:29:09;7.00;;;4.63;;
13568;SDS011;6856;51.460;7.158;2023-12-20T01:31:45;10.00;;;4.93;;
13568;SDS011;6856;51.460;7.158;2023-12-20T01:34:19;8.03;;;4.50;;
13568;SDS011;6856;51.460;7.158;2023-12-20T01:36:53;8.97;;;5.20;;
13568;SDS011;6856;51.460;7.158;2023-12-20T01:39:32;7.67;;;5.20;;
13568;SDS011;6856;51.460;7.158;2023-12-20T01:42:06;7.63;;;4.77;;
13568;SDS011;6856;51.460;7.158;2023-12-20T01:44:40;6.73;;;4.37;;
13568;SDS011;6856;51.460;7.158;2023-12-20T01:47:18;8.87;;;4.90;;
13568;SDS011;6856;51.460;7.158;2023-12-20T01:49:53;7.30;;;4.20;;
13568;SDS011;6856;51.460;7.158;2023-12-20T01:52:28;6.63;;;4.67;;
13568;SDS011;6856;51.460;7.158;2023-12-20T01:55:03;7.70;;;4.03;;
13568;SDS011;6856;51.460;7.158;2023-12-20T01:57:45;7.07;;;4.07;;
13568;SDS011;6856;51.460;7.158;2023-12-20T02:00:21;5.07;;;3.07;;
13568;SDS011;6856;51.460;7.158;2023-12-20T02:03:00;6.23;;;3.30;;
13568;SDS011;6856;51.460;7.158;2023-12-20T02:05:36;5.57;;;3.30;;
13568;SDS011;6856;51.460;7.158;2023-12-20T02:08:12;5.43;;;3.23;;
13568;SDS011;6856;51.460;7.158;2023-12-20T02:10:46;7.17;;;3.50;;
13568;SDS011;6856;51.460;7.158;2023-12-20T02:13:20;10.03;;;3.47;;
13568;SDS011;6856;51.460;7.158;2023-12-20T02:15:54;8.43;;;3.43;;
13568;SDS011;6856;51.460;7.158;2023-12-20T02:18:30;5.63;;;3.50;;
13568;SDS011;6856;51.460;7.158;2023-12-20T02:21:04;7.80;;;4.00;;
13568;SDS011;6856;51.460;7.158;2023-12-20T02:23:40;7.97;;;4.53;;
13568;SDS011;6856;51.460;7.158;2023-12-20T02:26:13;5.83;;;3.90;;
13568;SDS011;6856;51.460;7.158;2023-12-20T02:28:48;6.23;;;4.37;;
13568;SDS011;6856;51.460;7.158;2023-12-20T02:31:22;9.30;;;4.57;;
13568;SDS011;6856;51.460;7.158;2023-12-20T02:33:57;8.17;;;4.80;;
13568;SDS011;6856;51.460;7.158;2023-12-20T02:36:31;6.10;;;4.80;;
13568;SDS011;6856;51.460;7.158;2023-12-20T02:39:07;7.03;;;4.07;;
13568;SDS011;6856;51.460;7.158;2023-12-20T02:41:41;8.17;;;4.33;;
13568;SDS011;6856;51.460;7.158;2023-12-20T02:44:14;6.67;;;4.50;;
13568;SDS011;6856;51.460;7.158;2023-12-20T02:46:48;7.50;;;4.53;;
13568;SDS011;6856;51.460;7.158;2023-12-20T02:49:22;6.40;;;4.23;;
13568;SDS011;6856;51.460;7.158;2023-12-20T02:51:57;7.27;;;4.33;;
13568;SDS011;6856;51.460;7.158;2023-12-20T02:54:32;6.97;;;3.53;;
13568;SDS011;6856;51.460;7.158;2023-12-20T02:57:06;4.70;;;3.67;;
13568;SDS011;6856;51.460;7.158;2023-12-20T02:59:40;10.03;;;4.13;;
13568;SDS011;6856;51.460;7.158;2023-12-20T03:02:14;6.30;;;4.00;;
13568;SDS011;6856;51.460;7.158;2023-12-20T03:04:49;7.47;;;4.63;;
13568;SDS011;6856;51.460;7.158;2023-12-20T03:07:24;7.97;;;4.13;;
13568;SDS011;6856;51.460;7.158;2023-12-20T03:10:00;6.40;;;4.37;;
13568;SDS011;6856;51.460;7.158;2023-12-20T03:12:50;7.07;;;4.30;;
13568;SDS011;6856;51.460;7.158;2023-12-20T03:15:24;6.90;;;4.13;;
13568;SDS011;6856;51.460;7.158;2023-12-20T03:17:59;7.70;;;4.33;;
13568;SDS011;6856;51.460;7.158;2023-12-20T03:20:33;6.63;;;4.47;;
13568;SDS011;6856;51.460;7.158;2023-12-20T03:23:07;7.17;;;4.40;;
13568;SDS011;6856;51.460;7.158;2023-12-20T03:25:44;8.13;;;3.83;;
13568;SDS011;6856;51.460;7.158;2023-12-20T03:28:18;8.43;;;4.47;;
13568;SDS011;6856;51.460;7.158;2023-12-20T03:30:52;6.23;;;3.47;;
13568;SDS011;6856;51.460;7.158;2023-12-20T03:33:26;6.57;;;4.30;;
13568;SDS011;6856;51.460;7.158;2023-12-20T03:36:00;7.77;;;4.00;;
13568;SDS011;6856;51.460;7.158;2023-12-20T03:38:36;8.17;;;3.93;;
13568;SDS011;6856;51.460;7.158;2023-12-20T03:41:12;6.53;;;3.70;;
13568;SDS011;6856;51.460;7.158;2023-12-20T03:43:46;8.93;;;3.93;;
13568;SDS011;6856;51.460;7.158;2023-12-20T03:46:20;5.73;;;3.07;;
13568;SDS011;6856;51.460;7.158;2023-12-20T03:48:54;7.33;;;3.60;;
13568;SDS011;6856;51.460;7.158;2023-12-20T03:51:29;7.40;;;3.80;;
13568;SDS011;6856;51.460;7.158;2023-12-20T03:54:03;6.27;;;3.53;;
13568;SDS011;6856;51.460;7.158;2023-12-20T03:56:39;5.70;;;3.60;;
13568;SDS011;6856;51.460;7.158;2023-12-20T03:59:13;7.40;;;3.37;;
13568;SDS011;6856;51.460;7.158;2023-12-20T04:01:50;8.23;;;3.53;;
13568;SDS011;6856;51.460;7.158;2023-12-20T04:04:24;6.10;;;2.90;;
13568;SDS011;6856;51.460;7.158;2023-12-20T04:07:02;8.00;;;3.43;;
13568;SDS011;6856;51.460;7.158;2023-12-20T04:09:38;5.37;;;2.70;;
13568;SDS011;6856;51.460;7.158;2023-12-20T04:12:15;5.93;;;2.77;;
13568;SDS011;6856;51.460;7.158;2023-12-20T04:14:50;7.30;;;3.00;;
13568;SDS011;6856;51.460;7.158;2023-12-20T04:17:23;7.47;;;2.70;;
13568;SDS011;6856;51.460;7.158;2023-12-20T04:20:00;5.77;;;2.73;;
13568;SDS011;6856;51.460;7.158;2023-12-20T04:22:38;5.87;;;2.60;;
13568;SDS011;6856;51.460;7.158;2023-12-20T04:25:12;5.30;;;2.60;;
13568;SDS011;6856;51.460;7.158;2023-12-20T04:27:51;5.47;;;2.33;;
13568;SDS011;6856;51.460;7.158;2023-12-20T04:30:25;6.37;;;3.00;;
13568;SDS011;6856;51.460;7.158;2023-12-20T04:32:59;7.73;;;3.03;;
13568;SDS011;6856;51.460;7.158;2023-12-20T04:35:35;6.90;;;3.07;;
13568;SDS011;6856;51.460;7.158;2023-12-20T04:38:09;10.07;;;3.20;;
13568;SDS011;6856;51.460;7.158;2023-12-20T04:40:43;6.97;;;3.40;;
13568;SDS011;6856;51.460;7.158;2023-12-20T04:43:20;7.97;;;3.40;;
13568;SDS011;6856;51.460;7.158;2023-12-20T04:45:56;7.77;;;3.50;;
13568;SDS011;6856;51.460;7.158;2023-12-20T04:48:30;7.73;;;3.73;;
13568;SDS011;6856;51.460;7.158;2023-12-20T04:51:07;8.43;;;3.77;;
13568;SDS011;6856;51.460;7.158;2023-12-20T04:53:41;5.80;;;3.17;;
13568;SDS011;6856;51.460;7.158;2023-12-20T04:56:15;6.37;;;3.63;;
13568;SDS011;6856;51.460;7.158;2023-12-20T04:58:51;7.20;;;3.40;;
13568;SDS011;6856;51.460;7.158;2023-12-20T05:01:27;6.70;;;3.27;;
13568;SDS011;6856;51.460;7.158;2023-12-20T05:04:01;8.63;;;3.80;;
13568;SDS011;6856;51.460;7.158;2023-12-20T05:06:37;8.50;;;3.37;;
13568;SDS011;6856;51.460;7.158;2023-12-20T05:09:13;7.93;;;3.63;;
13568;SDS011;6856;51.460;7.158;2023-12-20T05:11:48;7.17;;;4.20;;
13568;SDS011;6856;51.460;7.158;2023-12-20T05:14:28;7.67;;;3.43;;
13568;SDS011;6856;51.460;7.158;2023-12-20T05:17:02;10.27;;;4.23;;
13568;SDS011;6856;51.460;7.158;2023-12-20T05:19:36;9.30;;;3.37;;
13568;SDS011;6856;51.460;7.158;2023-12-20T05:22:11;9.57;;;3.77;;
13568;SDS011;6856;51.460;7.158;2023-12-20T05:24:44;8.67;;;3.77;;
13568;SDS011;6856;51.460;7.158;2023-12-20T05:27:18;12.00;;;4.10;;
13568;SDS011;6856;51.460;7.158;2023-12-20T05:29:54;7.03;;;3.87;;
13568;SDS011;6856;51.460;7.158;2023-12-20T05:32:30;7.47;;;3.70;;
13568;SDS011;6856;51.460;7.158;2023-12-20T05:35:07;7.30;;;3.53;;
13568;SDS011;6856;51.460;7.158;2023-12-20T05:37:42;6.57;;;3.60;;
13568;SDS011;6856;51.460;7.158;2023-12-20T05:40:16;7.00;;;3.97;;
13568;SDS011;6856;51.460;7.158;2023-12-20T05:42:50;5.50;;;3.27;;
13568;SDS011;6856;51.460;7.158;2023-12-20T05:45:26;10.93;;;4.13;;
13568;SDS011;6856;51.460;7.158;2023-12-20T05:48:01;5.70;;;3.33;;
13568;SDS011;6856;51.460;7.158;2023-12-20T05:50:35;9.87;;;3.80;;
13568;SDS011;6856;51.460;7.158;2023-12-20T05:53:09;7.10;;;4.23;;
13568;SDS011;6856;51.460;7.158;2023-12-20T05:55:43;8.33;;;4.53;;
13568;SDS011;6856;51.460;7.158;2023-12-20T05:58:19;15.20;;;5.00;;
13568;SDS011;6856;51.460;7.158;2023-12-20T06:00:59;8.53;;;4.80;;
13568;SDS011;6856;51.460;7.158;2023-12-20T06:03:33;8.90;;;5.20;;
13568;SDS011;6856;51.460;7.158;2023-12-20T06:06:07;10.70;;;5.50;;
13568;SDS011;6856;51.460;7.158;2023-12-20T06:08:47;11.50;;;4.90;;
13568;SDS011;6856;51.460;7.158;2023-12-20T06:11:22;9.70;;;5.10;;
13568;SDS011;6856;51.460;7.158;2023-12-20T06:13:56;10.60;;;5.00;;
13568;SDS011;6856;51.460;7.158;2023-12-20T06:16:33;8.33;;;5.27;;
13568;SDS011;6856;51.460;7.158;2023-12-20T06:19:08;8.13;;;4.87;;
13568;SDS011;6856;51.460;7.158;2023-12-20T06:21:42;9.13;;;5.30;;
13568;SDS011;6856;51.460;7.158;2023-12-20T06:24:16;10.63;;;4.97;;
13568;SDS011;6856;51.460;7.158;2023-12-20T06:26:50;8.77;;;5.40;;
13568;SDS011;6856;51.460;7.158;2023-12-20T06:29:23;7.90;;;4.90;;
13568;SDS011;6856;51.460;7.158;2023-12-20T06:31:59;9.10;;;4.90;;
13568;SDS011;6856;51.460;7.158;2023-12-20T06:34:33;6.27;;;4.60;;
13568;SDS011;6856;51.460;7.158;2023-12-20T06:37:07;11.33;;;5.33;;
13568;SDS011;6856;51.460;7.158;2023-12-20T06:39:41;8.03;;;5.03;;
13568;SDS011;6856;51.460;7.158;2023-12-20T06:42:15;8.40;;;4.60;;
13568;SDS011;6856;51.460;7.158;2023-12-20T06:44:49;8.20;;;4.80;;
13568;SDS011;6856;51.460;7.158;2023-12-20T06:47:24;10.47;;;5.13;;
13568;SDS011;6856;51.460;7.158;2023-12-20T06:50:00;8.13;;;4.90;;
13568;SDS011;6856;51.460;7.158;2023-12-20T06:52:34;7.90;;;4.57;;
13568;SDS011;6856;51.460;7.158;2023-12-20T06:55:09;9.43;;;4.37;;
13568;SDS011;6856;51.460;7.158;2023-12-20T06:57:42;7.57;;;4.93;;
13568;SDS011;6856;51.460;7.158;2023-12-20T07:00:17;8.53;;;4.63;;
13568;SDS011;6856;51.460;7.158;2023-12-20T07:02:54;10.60;;;5.53;;
13568;SDS011;6856;51.460;7.158;2023-12-20T07:05:28;8.87;;;5.47;;
13568;SDS011;6856;51.460;7.158;2023-12-20T07:08:02;7.83;;;5.43;;
13568;SDS011;6856;51.460;7.158;2023-12-20T07:10:36;9.53;;;4.87;;
13568;SDS011;6856;51.460;7.158;2023-12-20T07:13:10;8.60;;;5.23;;
13568;SDS011;6856;51.460;7.158;2023-12-20T07:15:47;9.73;;;4.87;;
13568;SDS011;6856;51.460;7.158;2023-12-20T07:18:23;7.73;;;4.70;;
13568;SDS011;6856;51.460;7.158;2023-12-20T07:20:57;8.30;;;4.77;;
13568;SDS011;6856;51.460;7.158;2023-12-20T07:23:31;8.60;;;4.60;;
13568;SDS011;6856;51.460;7.158;2023-12-20T07:26:05;9.70;;;5.03;;
13568;SDS011;6856;51.460;7.158;2023-12-20T07:28:39;9.10;;;5.00;;
13568;SDS011;6856;51.460;7.158;2023-12-20T07:31:14;8.47;;;4.90;;
13568;SDS011;6856;51.460;7.158;2023-12-20T07:33:52;9.37;;;4.30;;
13568;SDS011;6856;51.460;7.158;2023-12-20T07:36:26;5.97;;;4.27;;
13568;SDS011;6856;51.460;7.158;2023-12-20T07:39:02;8.17;;;3.93;;
13568;SDS011;6856;51.460;7.158;2023-12-20T07:41:37;9.33;;;4.53;;
13568;SDS011;6856;51.460;7.158;2023-12-20T07:44:11;10.90;;;4.93;;
13568;SDS011;6856;51.460;7.158;2023-12-20T07:46:47;7.97;;;4.57;;
13568;SDS011;6856;51.460;7.158;2023-12-20T07:49:23;10.07;;;4.63;;
13568;SDS011;6856;51.460;7.158;2023-12-20T07:51:57;9.40;;;4.87;;
13568;SDS011;6856;51.460;7.158;2023-12-20T07:54:31;8.30;;;4.43;;
13568;SDS011;6856;51.460;7.158;2023-12-20T07:57:05;11.53;;;5.30;;
13568;SDS011;6856;51.460;7.158;2023-12-20T07:59:41;8.07;;;4.27;;
13568;SDS011;6856;51.460;7.158;2023-12-20T08:02:16;10.97;;;4.20;;
13568;SDS011;6856;51.460;7.158;2023-12-20T08:04:54;8.43;;;4.30;;
13568;SDS011;6856;51.460;7.158;2023-12-20T08:07:28;8.77;;;4.50;;
13568;SDS011;6856;51.460;7.158;2023-12-20T08:10:03;10.13;;;4.50;;
13568;SDS011;6856;51.460;7.158;2023-12-20T08:12:42;7.73;;;4.53;;
13568;SDS011;6856;51.460;7.158;2023-12-20T08:15:16;8.63;;;4.03;;
13568;SDS011;6856;51.460;7.158;2023-12-20T08:17:50;8.77;;;4.17;;
13568;SDS011;6856;51.460;7.158;2023-12-20T08:20:26;9.57;;;4.50;;
13568;SDS011;6856;51.460;7.158;2023-12-20T08:23:10;8.67;;;4.20;;
13568;SDS011;6856;51.460;7.158;2023-12-20T08:25:46;9.37;;;4.73;;
13568;SDS011;6856;51.460;7.158;2023-12-20T08:28:21;8.20;;;4.47;;
13568;SDS011;6856;51.460;7.158;2023-12-20T08:30:55;7.63;;;4.37;;
13568;SDS011;6856;51.460;7.158;2023-12-20T08:33:29;9.07;;;3.97;;
13568;SDS011;6856;51.460;7.158;2023-12-20T08:36:06;7.07;;;4.00;;
13568;SDS011;6856;51.460;7.158;2023-12-20T08:38:40;7.83;;;3.70;;
13568;SDS011;6856;51.460;7.158;2023-12-20T08:41:15;9.20;;;4.20;;
13568;SDS011;6856;51.460;7.158;2023-12-20T08:43:50;8.30;;;4.10;;
13568;SDS011;6856;51.460;7.158;2023-12-20T08:46:25;7.40;;;3.50;;
13568;SDS011;6856;51.460;7.158;2023-12-20T08:48:59;6.97;;;3.97;;
13568;SDS011;6856;51.460;7.158;2023-12-20T08:51:35;7.40;;;3.93;;
13568;SDS011;6856;51.460;7.158;2023-12-20T08:54:11;7.90;;;3.77;;
13568;SDS011;6856;51.460;7.158;2023-12-20T08:56:46;11.13;;;4.77;;
13568;SDS011;6856;51.460;7.158;2023-12-20T08:59:20;8.80;;;3.53;;
13568;SDS011;6856;51.460;7.158;2023-12-20T09:01:55;6.53;;;3.70;;
13568;SDS011;6856;51.460;7.158;2023-12-20T09:04:32;8.20;;;4.13;;
13568;SDS011;6856;51.460;7.158;2023-12-20T09:07:11;9.30;;;3.90;;
13568;SDS011;6856;51.460;7.158;2023-12-20T09:09:55;6.80;;;3.43;;
13568;SDS011;6856;51.460;7.158;2023-12-20T09:12:30;8.10;;;4.47;;
13568;SDS011;6856;51.460;7.158;2023-12-20T09:15:04;7.13;;;3.80;;
13568;SDS011;6856;51.460;7.158;2023-12-20T09:17:38;6.87;;;3.63;;
13568;SDS011;6856;51.460;7.158;2023-12-20T09:20:13;9.73;;;3.60;;
13568;SDS011;6856;51.460;7.158;2023-12-20T09:22:49;9.47;;;3.73;;
13568;SDS011;6856;51.460;7.158;2023-12-20T09:25:23;6.47;;;3.60;;
13568;SDS011;6856;51.460;7.158;2023-12-20T09:27:58;7.70;;;3.43;;
13568;SDS011;6856;51.460;7.158;2023-12-20T09:30:34;8.83;;;3.73;;
13568;SDS011;6856;51.460;7.158;2023-12-20T09:33:12;6.03;;;3.30;;
13568;SDS011;6856;51.460;7.158;2023-12-20T09:35:50;5.23;;;3.23;;
13568;SDS011;6856;51.460;7.158;2023-12-20T09:38:27;12.50;;;3.30;;
13568;SDS011;6856;51.460;7.158;2023-12-20T09:41:02;5.87;;;3.27;;
13568;SDS011;6856;51.460;7.158;2023-12-20T09:43:39;8.10;;;3.43;;
13568;SDS011;6856;51.460;7.158;2023-12-20T09:46:17;7.53;;;3.17;;
13568;SDS011;6856;51.460;7.158;2023-12-20T09:48:58;7.40;;;3.83;;
13568;SDS011;6856;51.460;7.158;2023-12-20T09:51:34;9.13;;;3.37;;
13568;SDS011;6856;51.460;7.158;2023-12-20T09:54:10;8.57;;;3.60;;
13568;SDS011;6856;51.460;7.158;2023-12-20T09:56:47;7.73;;;3.43;;
13568;SDS011;6856;51.460;7.158;2023-12-20T09:59:21;7.87;;;4.17;;
13568;SDS011;6856;51.460;7.158;2023-12-20T10:01:55;10.03;;;3.73;;
13568;SDS011;6856;51.460;7.158;2023-12-20T10:04:31;10.13;;;3.83;;
13568;SDS011;6856;51.460;7.158;2023-12-20T10:07:06;7.10;;;3.57;;
13568;SDS011;6856;51.460;7.158;2023-12-20T10:09:43;7.63;;;3.57;;
13568;SDS011;6856;51.460;7.158;2023-12-20T10:12:18;5.47;;;3.17;;
13568;SDS011;6856;51.460;7.158;2023-12-20T10:14:53;8.87;;;3.63;;
13568;SDS011;6856;51.460;7.158;2023-12-20T10:17:32;7.13;;;3.77;;
13568;SDS011;6856;51.460;7.158;2023-12-20T10:20:09;6.63;;;3.50;;
13568;SDS011;6856;51.460;7.158;2023-12-20T10:22:43;8.40;;;3.70;;
13568;SDS011;6856;51.460;7.158;2023-12-20T10:25:19;6.67;;;3.50;;
13568;SDS011;6856;51.460;7.158;2023-12-20T10:28:08;10.60;;;3.87;;
13568;SDS011;6856;51.460;7.158;2023-12-20T10:30:47;9.73;;;3.53;;
13568;SDS011;6856;51.460;7.158;2023-12-20T10:33:25;6.47;;;3.47;;
13568;SDS011;6856;51.460;7.158;2023-12-20T10:36:01;12.43;;;4.20;;
13568;SDS011;6856;51.460;7.158;2023-12-20T10:38:37;7.13;;;4.07;;
13568;SDS011;6856;51.460;7.158;2023-12-20T10:41:19;8.20;;;3.63;;
13568;SDS011;6856;51.460;7.158;2023-12-20T10:44:00;8.23;;;3.50;;
13568;SDS011;6856;51.460;7.158;2023-12-20T10:46:36;7.80;;;3.30;;
13568;SDS011;6856;51.460;7.158;2023-12-20T10:49:19;6.60;;;3.37;;
13568;SDS011;6856;51.460;7.158;2023-12-20T10:51:58;5.57;;;3.33;;
13568;SDS011;6856;51.460;7.158;2023-12-20T10:54:39;6.20;;;3.20;;
13568;SDS011;6856;51.460;7.158;2023-12-20T10:57:17;7.30;;;3.10;;
13568;SDS011;6856;51.460;7.158;2023-12-20T10:59:52;8.53;;;3.57;;
13568;SDS011;6856;51.460;7.158;2023-12-20T11:02:37;7.80;;;3.73;;
13568;SDS011;6856;51.460;7.158;2023-12-20T11:05:17;6.30;;;3.37;;
13568;SDS011;6856;51.460;7.158;2023-12-20T11:08:06;9.87;;;3.90;;
13568;SDS011;6856;51.460;7.158;2023-12-20T11:10:51;7.37;;;3.53;;
13568;SDS011;6856;51.460;7.158;2023-12-20T11:13:41;7.47;;;3.87;;
13568;SDS011;6856;51.460;7.158;2023-12-20T11:16:27;5.23;;;3.50;;
13568;SDS011;6856;51.460;7.158;2023-12-20T11:19:25;8.93;;;3.73;;
13568;SDS011;6856;51.460;7.158;2023-12-20T11:21:59;6.77;;;3.57;;
13568;SDS011;6856;51.460;7.158;2023-12-20T11:24:34;9.63;;;4.20;;
13568;SDS011;6856;51.460;7.158;2023-12-20T11:27:18;12.27;;;3.37;;
13568;SDS011;6856;51.460;7.158;2023-12-20T11:29:56;6.53;;;3.73;;
13568;SDS011;6856;51.460;7.158;2023-12-20T11:32:35;7.77;;;3.33;;
13568;SDS011;6856;51.460;7.158;2023-12-20T11:35:18;9.60;;;4.07;;
13568;SDS011;6856;51.460;7.158;2023-12-20T11:37:54;8.53;;;3.73;;
13568;SDS011;6856;51.460;7.158;2023-12-20T11:40:31;6.03;;;3.43;;
13568;SDS011;6856;51.460;7.158;2023-12-20T11:43:08;9.70;;;4.47;;
13568;SDS011;6856;51.460;7.158;2023-12-20T11:45:50;10.17;;;4.00;;
13568;SDS011;6856;51.460;7.158;2023-12-20T11:48:24;8.20;;;4.10;;
13568;SDS011;6856;51.460;7.158;2023-12-20T11:51:00;9.63;;;3.50;;
13568;SDS011;6856;51.460;7.158;2023-12-20T11:53:35;9.63;;;3.83;;
13568;SDS011;6856;51.460;7.158;2023-12-20T11:56:10;8.10;;;3.20;;
13568;SDS011;6856;51.460;7.158;2023-12-20T11:58:44;10.10;;;3.33;;
13568;SDS011;6856;51.460;7.158;2023-12-20T12:01:24;8.10;;;3.30;;
13568;SDS011;6856;51.460;7.158;2023-12-20T12:04:02;6.80;;;3.87;;
13568;SDS011;6856;51.460;7.158;2023-12-20T12:06:42;8.60;;;3.97;;
13568;SDS011;6856;51.460;7.158;2023-12-20T12:09:16;8.57;;;3.77;;
13568;SDS011;6856;51.460;7.158;2023-12-20T12:11:56;8.10;;;3.90;;
13568;SDS011;6856;51.460;7.158;2023-12-20T12:14:32;7.70;;;4.00;;
13568;SDS011;6856;51.460;7.158;2023-12-20T12:17:12;6.03;;;3.73;;
13568;SDS011;6856;51.460;7.158;2023-12-20T12:19:48;9.40;;;3.77;;
13568;SDS011;6856;51.460;7.158;2023-12-20T12:22:25;6.90;;;3.90;;
13568;SDS011;6856;51.460;7.158;2023-12-20T12:25:08;5.83;;;3.60;;
13568;SDS011;6856;51.460;7.158;2023-12-20T12:27:46;8.40;;;4.00;;
13568;SDS011;6856;51.460;7.158;2023-12-20T12:30:24;7.77;;;4.00;;
13568;SDS011;6856;51.460;7.158;2023-12-20T12:33:07;6.60;;;3.83;;
13568;SDS011;6856;51.460;7.158;2023-12-20T12:35:41;5.77;;;3.73;;
13568;SDS011;6856;51.460;7.158;2023-12-20T12:38:16;7.80;;;4.43;;
13568;SDS011;6856;51.460;7.158;2023-12-20T12:40:54;6.37;;;3.73;;
13568;SDS011;6856;51.460;7.158;2023-12-20T12:43:28;6.60;;;3.63;;
13568;SDS011;6856;51.460;7.158;2023-12-20T12:46:05;7.80;;;4.63;;
13568;SDS011;6856;51.460;7.158;2023-12-20T12:48:41;7.27;;;4.03;;
13568;SDS011;6856;51.460;7.158;2023-12-20T12:51:17;7.77;;;3.80;;
13568;SDS011;6856;51.460;7.158;2023-12-20T12:53:52;9.23;;;4.00;;
13568;SDS011;6856;51.460;7.158;2023-12-20T12:56:26;7.93;;;4.00;;
13568;SDS011;6856;51.460;7.158;2023-12-20T12:59:03;9.67;;;4.13;;
13568;SDS011;6856;51.460;7.158;2023-12-20T13:01:37;8.23;;;3.87;;
13568;SDS011;6856;51.460;7.158;2023-12-20T13:04:15;6.43;;;3.67;;
13568;SDS011;6856;51.460;7.158;2023-12-20T13:06:51;5.43;;;3.23;;
13568;SDS011;6856;51.460;7.158;2023-12-20T13:09:26;8.27;;;3.90;;
13568;SDS011;6856;51.460;7.158;2023-12-20T13:12:01;6.23;;;4.07;;
13568;SDS011;6856;51.460;7.158;2023-12-20T13:14:36;7.17;;;4.10;;
13568;SDS011;6856;51.460;7.158;2023-12-20T13:17:10;7.27;;;3.70;;
13568;SDS011;6856;51.460;7.158;2023-12-20T13:19:49;6.93;;;3.93;;
13568;SDS011;6856;51.460;7.158;2023-12-20T13:22:23;10.07;;;4.67;;
13568;SDS011;6856;51.460;7.158;2023-12-20T13:24:57;5.30;;;4.00;;
13568;SDS011;6856;51.460;7.158;2023-12-20T13:27:31;6.90;;;4.30;;
13568;SDS011;6856;51.460;7.158;2023-12-20T13:30:05;8.43;;;4.63;;
13568;SDS011;6856;51.460;7.158;2023-12-20T13:32:40;7.17;;;4.00;;
13568;SDS011;6856;51.460;7.158;2023-12-20T13:35:16;8.87;;;4.40;;
13568;SDS011;6856;51.460;7.158;2023-12-20T13:37:50;6.10;;;4.20;;
13568;SDS011;6856;51.460;7.158;2023-12-20T13:40:27;8.77;;;4.43;;
13568;SDS011;6856;51.460;7.158;2023-12-20T13:43:03;6.17;;;4.33;;
13568;SDS011;6856;51.460;7.158;2023-12-20T13:45:37;9.77;;;4.30;;
13568;SDS011;6856;51.460;7.158;2023-12-20T13:48:12;9.00;;;4.03;;
13568;SDS011;6856;51.460;7.158;2023-12-20T13:50:48;6.23;;;4.10;;
13568;SDS011;6856;51.460;7.158;2023-12-20T13:53:22;6.50;;;4.53;;
13568;SDS011;6856;51.460;7.158;2023-12-20T13:55:56;7.60;;;4.13;;
13568;SDS011;6856;51.460;7.158;2023-12-20T13:58:31;6.10;;;3.57;;
13568;SDS011;6856;51.460;7.158;2023-12-20T14:01:09;6.90;;;4.10;;
13568;SDS011;6856;51.460;7.158;2023-12-20T14:03:43;6.60;;;4.30;;
13568;SDS011;6856;51.460;7.158;2023-12-20T14:06:20;7.77;;;4.27;;
13568;SDS011;6856;51.460;7.158;2023-12-20T14:08:55;8.57;;;4.80;;
13568;SDS011;6856;51.460;7.158;2023-12-20T14:11:29;10.27;;;7.83;;
13568;SDS011;6856;51.460;7.158;2023-12-20T14:14:03;10.07;;;5.87;;
13568;SDS011;6856;51.460;7.158;2023-12-20T14:16:39;10.20;;;6.43;;
13568;SDS011;6856;51.460;7.158;2023-12-20T14:19:16;11.87;;;5.87;;
13568;SDS011;6856;51.460;7.158;2023-12-20T14:21:53;8.47;;;4.80;;
13568;SDS011;6856;51.460;7.158;2023-12-20T14:24:29;7.43;;;4.60;;
13568;SDS011;6856;51.460;7.158;2023-12-20T14:27:04;8.03;;;4.67;;
13568;SDS011;6856;51.460;7.158;2023-12-20T14:29:38;8.90;;;4.70;;
13568;SDS011;6856;51.460;7.158;2023-12-20T14:32:12;7.20;;;4.67;;
13568;SDS011;6856;51.460;7.158;2023-12-20T14:34:49;6.70;;;3.80;;
13568;SDS011;6856;51.460;7.158;2023-12-20T14:37:25;6.37;;;4.20;;
13568;SDS011;6856;51.460;7.158;2023-12-20T14:39:59;5.43;;;4.10;;
13568;SDS011;6856;51.460;7.158;2023-12-20T14:42:33;7.57;;;4.60;;
13568;SDS011;6856;51.460;7.158;2023-12-20T14:45:09;7.23;;;4.83;;
13568;SDS011;6856;51.460;7.158;2023-12-20T14:47:45;6.40;;;5.47;;
13568;SDS011;6856;51.460;7.158;2023-12-20T14:50:21;6.83;;;5.73;;
13568;SDS011;6856;51.460;7.158;2023-12-20T14:52:58;7.40;;;5.20;;
13568;SDS011;6856;51.460;7.158;2023-12-20T14:55:32;9.17;;;5.83;;
13568;SDS011;6856;51.460;7.158;2023-12-20T14:58:06;8.00;;;6.20;;
13568;SDS011;6856;51.460;7.158;2023-12-20T15:00:40;7.60;;;5.60;;
13568;SDS011;6856;51.460;7.158;2023-12-20T15:03:17;7.00;;;5.27;;
13568;SDS011;6856;51.460;7.158;2023-12-20T15:05:52;7.43;;;5.20;;
13568;SDS011;6856;51.460;7.158;2023-12-20T15:08:30;6.80;;;5.43;;
13568;SDS011;6856;51.460;7.158;2023-12-20T15:11:04;8.57;;;5.40;;
13568;SDS011;6856;51.460;7.158;2023-12-20T15:13:40;7.97;;;5.73;;
13568;SDS011;6856;51.460;7.158;2023-12-20T15:16:14;10.57;;;5.50;;
13568;SDS011;6856;51.460;7.158;2023-12-20T15:18:48;7.90;;;5.47;;
13568;SDS011;6856;51.460;7.158;2023-12-20T15:21:25;8.47;;;4.93;;
13568;SDS011;6856;51.460;7.158;2023-12-20T15:24:06;8.43;;;4.70;;
13568;SDS011;6856;51.460;7.158;2023-12-20T15:26:46;6.47;;;4.93;;
13568;SDS011;6856;51.460;7.158;2023-12-20T15:29:20;6.63;;;4.83;;
13568;SDS011;6856;51.460;7.158;2023-12-20T15:31:54;8.13;;;5.47;;
13568;SDS011;6856;51.460;7.158;2023-12-20T15:34:29;8.80;;;5.70;;
13568;SDS011;6856;51.460;7.158;2023-12-20T15:37:03;6.80;;;5.07;;
13568;SDS011;6856;51.460;7.158;2023-12-20T15:39:39;10.07;;;5.60;;
13568;SDS011;6856;51.460;7.158;2023-12-20T15:42:14;6.83;;;5.23;;
13568;SDS011;6856;51.460;7.158;2023-12-20T15:44:48;7.13;;;4.83;;
13568;SDS011;6856;51.460;7.158;2023-12-20T15:47:23;9.23;;;5.20;;
13568;SDS011;6856;51.460;7.158;2023-12-20T15:49:57;6.93;;;5.00;;
13568;SDS011;6856;51.460;7.158;2023-12-20T15:52:31;7.37;;;5.10;;